sensor_id;sensor_type;location;lat;lon;timestamp;P1;durP1;ratioP1;P2;durP2;ratioP2
24637;SDS011;12773;50.162;8.548;2022-09-11T00:02:09;19.80;;;12.73;;
24637;SDS011;12773;50.162;8.548;2022-09-11T00:04:57;20.08;;;14.43;;
24637;SDS011;12773;50.162;8.548;2022-09-11T00:07:44;22.98;;;14.53;;
24637;SDS011;12773;50.162;8.548;2022-09-11T00:10:33;11.68;;;7.78;;
24637;SDS011;12773;50.162;8.548;2022-09-11T00:13:23;15.40;;;9.15;;
24637;SDS011;12773;50.162;8.548;2022-09-11T00:16:18;15.60;;;10.05;;
24637;SDS011;12773;50.162;8.548;2022-09-11T00:19:12;16.15;;;12.07;;
24637;SDS011;12773;50.162;8.548;2022-09-11T00:22:04;16.62;;;11.73;;
24637;SDS011;12773;50.162;8.548;2022-09-11T00:24:52;20.52;;;13.58;;
24637;SDS011;12773;50.162;8.548;2022-09-11T00:27:39;23.50;;;13.78;;
24637;SDS011;12773;50.162;8.548;2022-09-11T00:30:27;20.52;;;13.85;;
24637;SDS011;12773;50.162;8.548;2022-09-11T00:33:14;20.95;;;14.23;;
24637;SDS011;12773;50.162;8.548;2022-09-11T00:36:03;23.83;;;14.50;;
24637;SDS011;12773;50.162;8.548;2022-09-11T00:38:52;22.67;;;15.72;;
24637;SDS011;12773;50.162;8.548;2022-09-11T00:41:42;23.22;;;15.20;;
24637;SDS011;12773;50.162;8.548;2022-09-11T00:47:22;23.20;;;16.00;;
24637;SDS011;12773;50.162;8.548;2022-09-11T00:50:15;22.30;;;15.28;;
24637;SDS011;12773;50.162;8.548;2022-09-11T00:53:04;22.87;;;15.85;;
24637;SDS011;12773;50.162;8.548;2022-09-11T00:55:55;23.73;;;15.75;;
24637;SDS011;12773;50.162;8.548;2022-09-11T00:58:44;22.73;;;15.48;;
24637;SDS011;12773;50.162;8.548;2022-09-11T01:01:34;26.02;;;16.25;;
24637;SDS011;12773;50.162;8.548;2022-09-11T01:04:21;22.70;;;15.28;;
24637;SDS011;12773;50.162;8.548;2022-09-11T01:07:09;22.65;;;14.95;;
24637;SDS011;12773;50.162;8.548;2022-09-11T01:09:59;26.05;;;16.65;;
24637;SDS011;12773;50.162;8.548;2022-09-11T01:13:03;25.17;;;16.95;;
24637;SDS011;12773;50.162;8.548;2022-09-11T01:16:08;25.12;;;16.82;;
24637;SDS011;12773;50.162;8.548;2022-09-11T01:22:16;26.00;;;16.25;;
24637;SDS011;12773;50.162;8.548;2022-09-11T01:25:07;21.23;;;14.33;;
24637;SDS011;12773;50.162;8.548;2022-09-11T01:28:12;21.60;;;14.07;;
24637;SDS011;12773;50.162;8.548;2022-09-11T01:31:05;21.55;;;13.35;;
24637;SDS011;12773;50.162;8.548;2022-09-11T01:36:45;18.60;;;12.05;;
24637;SDS011;12773;50.162;8.548;2022-09-11T01:39:43;13.70;;;9.28;;
24637;SDS011;12773;50.162;8.548;2022-09-11T01:42:28;11.73;;;9.08;;
24637;SDS011;12773;50.162;8.548;2022-09-11T01:45:18;11.10;;;8.45;;
24637;SDS011;12773;50.162;8.548;2022-09-11T01:48:09;11.18;;;7.83;;
24637;SDS011;12773;50.162;8.548;2022-09-11T01:50:59;10.75;;;7.92;;
24637;SDS011;12773;50.162;8.548;2022-09-11T01:53:49;11.90;;;8.85;;
24637;SDS011;12773;50.162;8.548;2022-09-11T01:56:44;11.80;;;9.13;;
24637;SDS011;12773;50.162;8.548;2022-09-11T01:59:36;11.85;;;8.65;;
24637;SDS011;12773;50.162;8.548;2022-09-11T02:02:34;13.58;;;7.47;;
24637;SDS011;12773;50.162;8.548;2022-09-11T02:05:19;13.88;;;8.90;;
24637;SDS011;12773;50.162;8.548;2022-09-11T02:08:26;13.93;;;9.80;;
24637;SDS011;12773;50.162;8.548;2022-09-11T02:11:15;21.77;;;11.83;;
24637;SDS011;12773;50.162;8.548;2022-09-11T02:14:05;19.37;;;11.63;;
24637;SDS011;12773;50.162;8.548;2022-09-11T02:17:02;21.70;;;13.45;;
24637;SDS011;12773;50.162;8.548;2022-09-11T02:19:52;21.68;;;14.45;;
24637;SDS011;12773;50.162;8.548;2022-09-11T02:22:41;23.40;;;14.35;;
24637;SDS011;12773;50.162;8.548;2022-09-11T02:25:29;26.87;;;15.35;;
24637;SDS011;12773;50.162;8.548;2022-09-11T02:28:16;27.52;;;16.27;;
24637;SDS011;12773;50.162;8.548;2022-09-11T02:31:03;25.50;;;15.13;;
24637;SDS011;12773;50.162;8.548;2022-09-11T02:33:52;20.27;;;13.22;;
24637;SDS011;12773;50.162;8.548;2022-09-11T02:39:44;22.58;;;11.95;;
24637;SDS011;12773;50.162;8.548;2022-09-11T02:42:51;22.58;;;13.28;;
24637;SDS011;12773;50.162;8.548;2022-09-11T02:45:52;19.82;;;13.55;;
24637;SDS011;12773;50.162;8.548;2022-09-11T02:48:55;19.77;;;12.70;;
24637;SDS011;12773;50.162;8.548;2022-09-11T02:51:46;22.73;;;14.20;;
24637;SDS011;12773;50.162;8.548;2022-09-11T02:54:44;20.37;;;13.18;;
24637;SDS011;12773;50.162;8.548;2022-09-11T02:57:40;21.20;;;13.15;;
24637;SDS011;12773;50.162;8.548;2022-09-11T03:00:29;24.05;;;13.30;;
24637;SDS011;12773;50.162;8.548;2022-09-11T03:03:17;22.30;;;12.50;;
24637;SDS011;12773;50.162;8.548;2022-09-11T03:06:06;19.98;;;12.75;;
24637;SDS011;12773;50.162;8.548;2022-09-11T03:08:56;20.82;;;12.70;;
24637;SDS011;12773;50.162;8.548;2022-09-11T03:11:43;19.57;;;11.73;;
24637;SDS011;12773;50.162;8.548;2022-09-11T03:14:31;22.07;;;13.50;;
24637;SDS011;12773;50.162;8.548;2022-09-11T03:17:20;23.65;;;12.58;;
24637;SDS011;12773;50.162;8.548;2022-09-11T03:20:08;19.10;;;12.03;;
24637;SDS011;12773;50.162;8.548;2022-09-11T03:22:55;20.17;;;11.38;;
24637;SDS011;12773;50.162;8.548;2022-09-11T03:25:42;17.32;;;11.68;;
24637;SDS011;12773;50.162;8.548;2022-09-11T03:28:30;21.45;;;12.68;;
24637;SDS011;12773;50.162;8.548;2022-09-11T03:31:18;19.12;;;12.65;;
24637;SDS011;12773;50.162;8.548;2022-09-11T03:34:06;18.85;;;12.15;;
24637;SDS011;12773;50.162;8.548;2022-09-11T03:36:53;20.65;;;12.75;;
24637;SDS011;12773;50.162;8.548;2022-09-11T03:39:41;22.25;;;13.45;;
24637;SDS011;12773;50.162;8.548;2022-09-11T03:42:28;24.18;;;12.93;;
24637;SDS011;12773;50.162;8.548;2022-09-11T03:45:15;23.18;;;12.90;;
24637;SDS011;12773;50.162;8.548;2022-09-11T03:48:03;23.50;;;13.60;;
24637;SDS011;12773;50.162;8.548;2022-09-11T03:50:50;19.48;;;12.37;;
24637;SDS011;12773;50.162;8.548;2022-09-11T03:53:39;21.25;;;13.13;;
24637;SDS011;12773;50.162;8.548;2022-09-11T03:56:27;23.12;;;13.58;;
24637;SDS011;12773;50.162;8.548;2022-09-11T03:59:15;23.32;;;13.60;;
24637;SDS011;12773;50.162;8.548;2022-09-11T04:02:04;24.20;;;13.90;;
24637;SDS011;12773;50.162;8.548;2022-09-11T04:04:51;27.30;;;13.50;;
24637;SDS011;12773;50.162;8.548;2022-09-11T04:07:39;26.05;;;13.10;;
24637;SDS011;12773;50.162;8.548;2022-09-11T04:10:26;23.15;;;13.53;;
24637;SDS011;12773;50.162;8.548;2022-09-11T04:13:13;26.85;;;13.70;;
24637;SDS011;12773;50.162;8.548;2022-09-11T04:16:02;31.73;;;16.32;;
24637;SDS011;12773;50.162;8.548;2022-09-11T04:18:54;29.42;;;15.85;;
24637;SDS011;12773;50.162;8.548;2022-09-11T04:21:41;31.80;;;16.37;;
24637;SDS011;12773;50.162;8.548;2022-09-11T04:24:28;30.50;;;15.95;;
24637;SDS011;12773;50.162;8.548;2022-09-11T04:27:16;30.82;;;15.78;;
24637;SDS011;12773;50.162;8.548;2022-09-11T04:30:04;27.73;;;14.85;;
24637;SDS011;12773;50.162;8.548;2022-09-11T04:32:51;39.73;;;16.48;;
24637;SDS011;12773;50.162;8.548;2022-09-11T04:35:39;42.00;;;17.80;;
24637;SDS011;12773;50.162;8.548;2022-09-11T04:38:26;44.48;;;17.70;;
24637;SDS011;12773;50.162;8.548;2022-09-11T04:41:14;43.78;;;16.97;;
24637;SDS011;12773;50.162;8.548;2022-09-11T04:44:02;39.80;;;16.65;;
24637;SDS011;12773;50.162;8.548;2022-09-11T04:46:50;40.08;;;16.93;;
24637;SDS011;12773;50.162;8.548;2022-09-11T04:49:37;41.80;;;17.17;;
24637;SDS011;12773;50.162;8.548;2022-09-11T04:52:25;45.33;;;18.73;;
24637;SDS011;12773;50.162;8.548;2022-09-11T04:55:12;48.90;;;18.50;;
24637;SDS011;12773;50.162;8.548;2022-09-11T04:58:00;46.77;;;19.30;;
24637;SDS011;12773;50.162;8.548;2022-09-11T05:00:48;41.65;;;17.90;;
24637;SDS011;12773;50.162;8.548;2022-09-11T05:03:35;36.23;;;16.27;;
24637;SDS011;12773;50.162;8.548;2022-09-11T05:06:23;35.40;;;16.17;;
24637;SDS011;12773;50.162;8.548;2022-09-11T05:09:11;39.73;;;17.60;;
24637;SDS011;12773;50.162;8.548;2022-09-11T05:11:58;38.15;;;18.30;;
24637;SDS011;12773;50.162;8.548;2022-09-11T05:14:46;39.60;;;17.02;;
24637;SDS011;12773;50.162;8.548;2022-09-11T05:17:33;31.48;;;15.75;;
24637;SDS011;12773;50.162;8.548;2022-09-11T05:20:21;38.45;;;17.12;;
24637;SDS011;12773;50.162;8.548;2022-09-11T05:23:10;40.58;;;17.40;;
24637;SDS011;12773;50.162;8.548;2022-09-11T05:25:58;39.88;;;16.75;;
24637;SDS011;12773;50.162;8.548;2022-09-11T05:28:46;47.35;;;17.70;;
24637;SDS011;12773;50.162;8.548;2022-09-11T05:31:35;40.65;;;17.50;;
24637;SDS011;12773;50.162;8.548;2022-09-11T05:34:24;43.65;;;17.67;;
24637;SDS011;12773;50.162;8.548;2022-09-11T05:37:15;46.92;;;17.70;;
24637;SDS011;12773;50.162;8.548;2022-09-11T05:40:02;47.65;;;18.45;;
24637;SDS011;12773;50.162;8.548;2022-09-11T05:42:51;54.25;;;18.87;;
24637;SDS011;12773;50.162;8.548;2022-09-11T05:45:38;47.93;;;18.92;;
24637;SDS011;12773;50.162;8.548;2022-09-11T05:48:34;49.40;;;18.10;;
24637;SDS011;12773;50.162;8.548;2022-09-11T05:51:18;45.73;;;17.50;;
24637;SDS011;12773;50.162;8.548;2022-09-11T05:54:07;45.85;;;18.27;;
24637;SDS011;12773;50.162;8.548;2022-09-11T05:56:54;44.42;;;16.45;;
24637;SDS011;12773;50.162;8.548;2022-09-11T05:59:42;41.10;;;16.52;;
24637;SDS011;12773;50.162;8.548;2022-09-11T06:02:29;41.55;;;16.35;;
24637;SDS011;12773;50.162;8.548;2022-09-11T06:05:18;49.38;;;17.87;;
24637;SDS011;12773;50.162;8.548;2022-09-11T06:08:06;53.65;;;17.82;;
24637;SDS011;12773;50.162;8.548;2022-09-11T06:10:57;49.20;;;17.95;;
24637;SDS011;12773;50.162;8.548;2022-09-11T06:13:46;44.75;;;16.82;;
24637;SDS011;12773;50.162;8.548;2022-09-11T06:16:35;51.58;;;19.17;;
24637;SDS011;12773;50.162;8.548;2022-09-11T06:19:23;54.58;;;20.12;;
24637;SDS011;12773;50.162;8.548;2022-09-11T06:22:13;54.05;;;20.17;;
24637;SDS011;12773;50.162;8.548;2022-09-11T06:25:01;64.42;;;21.55;;
24637;SDS011;12773;50.162;8.548;2022-09-11T06:27:48;59.10;;;21.75;;
24637;SDS011;12773;50.162;8.548;2022-09-11T06:30:36;56.80;;;22.35;;
24637;SDS011;12773;50.162;8.548;2022-09-11T06:33:24;69.00;;;25.55;;
24637;SDS011;12773;50.162;8.548;2022-09-11T06:36:13;64.12;;;24.37;;
24637;SDS011;12773;50.162;8.548;2022-09-11T06:39:05;69.67;;;27.13;;
24637;SDS011;12773;50.162;8.548;2022-09-11T06:41:52;73.50;;;28.70;;
24637;SDS011;12773;50.162;8.548;2022-09-11T06:44:40;73.02;;;29.07;;
24637;SDS011;12773;50.162;8.548;2022-09-11T06:47:27;70.15;;;29.12;;
24637;SDS011;12773;50.162;8.548;2022-09-11T06:50:16;65.08;;;28.77;;
24637;SDS011;12773;50.162;8.548;2022-09-11T06:53:03;66.25;;;29.25;;
24637;SDS011;12773;50.162;8.548;2022-09-11T06:55:51;61.92;;;28.90;;
24637;SDS011;12773;50.162;8.548;2022-09-11T06:58:39;62.62;;;28.65;;
24637;SDS011;12773;50.162;8.548;2022-09-11T07:01:26;55.67;;;27.30;;
24637;SDS011;12773;50.162;8.548;2022-09-11T07:04:14;57.62;;;27.20;;
24637;SDS011;12773;50.162;8.548;2022-09-11T07:07:01;52.95;;;26.90;;
24637;SDS011;12773;50.162;8.548;2022-09-11T07:09:49;49.35;;;25.40;;
24637;SDS011;12773;50.162;8.548;2022-09-11T07:12:37;44.48;;;24.47;;
24637;SDS011;12773;50.162;8.548;2022-09-11T07:15:24;47.30;;;25.05;;
24637;SDS011;12773;50.162;8.548;2022-09-11T07:18:12;48.30;;;24.72;;
24637;SDS011;12773;50.162;8.548;2022-09-11T07:20:59;49.85;;;25.88;;
24637;SDS011;12773;50.162;8.548;2022-09-11T07:23:54;42.90;;;23.45;;
24637;SDS011;12773;50.162;8.548;2022-09-11T07:26:43;41.60;;;22.62;;
24637;SDS011;12773;50.162;8.548;2022-09-11T07:29:30;41.08;;;21.33;;
24637;SDS011;12773;50.162;8.548;2022-09-11T07:32:18;45.43;;;25.62;;
24637;SDS011;12773;50.162;8.548;2022-09-11T07:35:06;48.75;;;26.07;;
24637;SDS011;12773;50.162;8.548;2022-09-11T07:37:53;51.68;;;26.07;;
24637;SDS011;12773;50.162;8.548;2022-09-11T07:40:40;48.25;;;25.62;;
24637;SDS011;12773;50.162;8.548;2022-09-11T07:43:28;53.28;;;25.30;;
24637;SDS011;12773;50.162;8.548;2022-09-11T07:46:15;47.75;;;24.30;;
24637;SDS011;12773;50.162;8.548;2022-09-11T07:49:02;44.85;;;24.00;;
24637;SDS011;12773;50.162;8.548;2022-09-11T07:51:50;36.08;;;19.50;;
24637;SDS011;12773;50.162;8.548;2022-09-11T07:54:38;33.00;;;19.12;;
24637;SDS011;12773;50.162;8.548;2022-09-11T07:57:28;30.45;;;18.23;;
24637;SDS011;12773;50.162;8.548;2022-09-11T08:00:21;33.95;;;18.52;;
24637;SDS011;12773;50.162;8.548;2022-09-11T08:03:09;34.65;;;18.35;;
24637;SDS011;12773;50.162;8.548;2022-09-11T08:05:57;33.18;;;19.23;;
24637;SDS011;12773;50.162;8.548;2022-09-11T08:08:50;32.80;;;19.32;;
24637;SDS011;12773;50.162;8.548;2022-09-11T08:11:41;32.35;;;18.40;;
24637;SDS011;12773;50.162;8.548;2022-09-11T08:14:32;31.25;;;17.80;;
24637;SDS011;12773;50.162;8.548;2022-09-11T08:17:19;32.75;;;18.05;;
24637;SDS011;12773;50.162;8.548;2022-09-11T08:20:06;38.17;;;19.60;;
24637;SDS011;12773;50.162;8.548;2022-09-11T08:22:54;32.53;;;18.95;;
24637;SDS011;12773;50.162;8.548;2022-09-11T08:25:43;29.77;;;17.98;;
24637;SDS011;12773;50.162;8.548;2022-09-11T08:28:31;36.90;;;19.87;;
24637;SDS011;12773;50.162;8.548;2022-09-11T08:31:21;33.63;;;18.07;;
24637;SDS011;12773;50.162;8.548;2022-09-11T08:34:11;31.62;;;18.52;;
24637;SDS011;12773;50.162;8.548;2022-09-11T08:37:00;37.03;;;18.98;;
24637;SDS011;12773;50.162;8.548;2022-09-11T08:39:48;32.58;;;18.27;;
24637;SDS011;12773;50.162;8.548;2022-09-11T08:42:36;28.90;;;16.97;;
24637;SDS011;12773;50.162;8.548;2022-09-11T08:45:30;31.10;;;18.00;;
24637;SDS011;12773;50.162;8.548;2022-09-11T08:48:23;30.20;;;17.45;;
24637;SDS011;12773;50.162;8.548;2022-09-11T08:51:29;34.45;;;17.57;;
24637;SDS011;12773;50.162;8.548;2022-09-11T08:54:20;33.33;;;18.07;;
24637;SDS011;12773;50.162;8.548;2022-09-11T09:09:39;31.62;;;18.05;;
24637;SDS011;12773;50.162;8.548;2022-09-11T09:18:36;30.97;;;17.02;;
24637;SDS011;12773;50.162;8.548;2022-09-11T09:21:31;31.52;;;16.95;;
24637;SDS011;12773;50.162;8.548;2022-09-11T09:24:19;28.35;;;16.57;;
24637;SDS011;12773;50.162;8.548;2022-09-11T09:27:10;32.85;;;17.00;;
24637;SDS011;12773;50.162;8.548;2022-09-11T09:30:04;33.00;;;17.65;;
24637;SDS011;12773;50.162;8.548;2022-09-11T09:32:56;28.27;;;16.07;;
24637;SDS011;12773;50.162;8.548;2022-09-11T09:35:54;32.53;;;16.10;;
24637;SDS011;12773;50.162;8.548;2022-09-11T09:38:42;28.77;;;15.28;;
24637;SDS011;12773;50.162;8.548;2022-09-11T09:41:48;26.68;;;15.68;;
24637;SDS011;12773;50.162;8.548;2022-09-11T09:44:50;26.07;;;15.40;;
24637;SDS011;12773;50.162;8.548;2022-09-11T09:47:50;26.45;;;15.45;;
24637;SDS011;12773;50.162;8.548;2022-09-11T09:50:38;22.87;;;13.10;;
24637;SDS011;12773;50.162;8.548;2022-09-11T09:56:32;22.00;;;13.65;;
24637;SDS011;12773;50.162;8.548;2022-09-11T09:59:29;23.73;;;12.82;;
24637;SDS011;12773;50.162;8.548;2022-09-11T10:05:39;26.05;;;15.15;;
24637;SDS011;12773;50.162;8.548;2022-09-11T10:08:27;23.40;;;14.35;;
24637;SDS011;12773;50.162;8.548;2022-09-11T10:11:26;30.80;;;15.10;;
24637;SDS011;12773;50.162;8.548;2022-09-11T10:14:17;26.07;;;14.47;;
24637;SDS011;12773;50.162;8.548;2022-09-11T10:17:06;28.75;;;15.43;;
24637;SDS011;12773;50.162;8.548;2022-09-11T10:23:21;28.27;;;15.55;;
24637;SDS011;12773;50.162;8.548;2022-09-11T10:26:14;24.55;;;14.40;;
24637;SDS011;12773;50.162;8.548;2022-09-11T10:29:07;28.45;;;15.28;;
24637;SDS011;12773;50.162;8.548;2022-09-11T10:31:55;28.30;;;14.00;;
24637;SDS011;12773;50.162;8.548;2022-09-11T10:34:45;28.20;;;14.87;;
24637;SDS011;12773;50.162;8.548;2022-09-11T10:37:39;25.25;;;14.10;;
24637;SDS011;12773;50.162;8.548;2022-09-11T10:40:23;26.35;;;13.95;;
24637;SDS011;12773;50.162;8.548;2022-09-11T10:43:17;26.60;;;14.40;;
24637;SDS011;12773;50.162;8.548;2022-09-11T10:46:20;29.18;;;13.05;;
24637;SDS011;12773;50.162;8.548;2022-09-11T10:49:17;24.30;;;13.38;;
24637;SDS011;12773;50.162;8.548;2022-09-11T10:55:03;29.50;;;14.80;;
24637;SDS011;12773;50.162;8.548;2022-09-11T10:57:54;26.75;;;13.28;;
24637;SDS011;12773;50.162;8.548;2022-09-11T11:00:46;26.15;;;13.38;;
24637;SDS011;12773;50.162;8.548;2022-09-11T11:03:35;24.77;;;12.90;;
24637;SDS011;12773;50.162;8.548;2022-09-11T11:09:26;21.62;;;11.75;;
24637;SDS011;12773;50.162;8.548;2022-09-11T11:12:38;19.37;;;10.25;;
24637;SDS011;12773;50.162;8.548;2022-09-11T11:15:42;21.20;;;11.90;;
24637;SDS011;12773;50.162;8.548;2022-09-11T11:19:01;17.48;;;9.65;;
24637;SDS011;12773;50.162;8.548;2022-09-11T11:37:33;17.02;;;9.60;;
24637;SDS011;12773;50.162;8.548;2022-09-11T11:43:15;16.82;;;8.83;;
24637;SDS011;12773;50.162;8.548;2022-09-11T11:46:23;18.37;;;9.33;;
24637;SDS011;12773;50.162;8.548;2022-09-11T11:49:10;13.45;;;8.38;;
24637;SDS011;12773;50.162;8.548;2022-09-11T11:52:11;16.60;;;8.50;;
24637;SDS011;12773;50.162;8.548;2022-09-11T11:58:10;14.03;;;7.97;;
24637;SDS011;12773;50.162;8.548;2022-09-11T12:01:03;16.90;;;8.60;;
24637;SDS011;12773;50.162;8.548;2022-09-11T12:03:56;14.25;;;7.90;;
24637;SDS011;12773;50.162;8.548;2022-09-11T12:06:45;15.75;;;8.90;;
24637;SDS011;12773;50.162;8.548;2022-09-11T12:09:32;15.88;;;8.75;;
24637;SDS011;12773;50.162;8.548;2022-09-11T12:12:20;16.20;;;8.23;;
24637;SDS011;12773;50.162;8.548;2022-09-11T12:15:17;17.25;;;9.08;;
24637;SDS011;12773;50.162;8.548;2022-09-11T12:24:15;16.90;;;9.48;;
24637;SDS011;12773;50.162;8.548;2022-09-11T12:30:24;14.93;;;8.73;;
24637;SDS011;12773;50.162;8.548;2022-09-11T12:36:35;17.35;;;10.35;;
24637;SDS011;12773;50.162;8.548;2022-09-11T12:39:30;20.15;;;10.50;;
24637;SDS011;12773;50.162;8.548;2022-09-11T12:48:40;17.20;;;9.93;;
24637;SDS011;12773;50.162;8.548;2022-09-11T12:51:22;20.00;;;10.80;;
24637;SDS011;12773;50.162;8.548;2022-09-11T12:54:12;17.87;;;10.00;;
24637;SDS011;12773;50.162;8.548;2022-09-11T12:57:06;18.85;;;10.38;;
24637;SDS011;12773;50.162;8.548;2022-09-11T12:59:58;17.85;;;9.63;;
24637;SDS011;12773;50.162;8.548;2022-09-11T13:02:52;21.73;;;10.53;;
24637;SDS011;12773;50.162;8.548;2022-09-11T13:05:41;23.85;;;11.80;;
24637;SDS011;12773;50.162;8.548;2022-09-11T13:08:31;20.85;;;11.25;;
24637;SDS011;12773;50.162;8.548;2022-09-11T13:11:33;19.12;;;10.55;;
24637;SDS011;12773;50.162;8.548;2022-09-11T13:17:23;20.70;;;9.55;;
24637;SDS011;12773;50.162;8.548;2022-09-11T13:20:19;17.50;;;10.10;;
24637;SDS011;12773;50.162;8.548;2022-09-11T13:23:11;18.80;;;9.65;;
24637;SDS011;12773;50.162;8.548;2022-09-11T13:26:05;15.75;;;9.00;;
24637;SDS011;12773;50.162;8.548;2022-09-11T13:28:54;14.25;;;8.35;;
24637;SDS011;12773;50.162;8.548;2022-09-11T13:31:43;13.88;;;7.83;;
24637;SDS011;12773;50.162;8.548;2022-09-11T13:34:31;13.10;;;8.15;;
24637;SDS011;12773;50.162;8.548;2022-09-11T13:37:37;14.07;;;8.60;;
24637;SDS011;12773;50.162;8.548;2022-09-11T13:40:27;14.40;;;8.33;;
24637;SDS011;12773;50.162;8.548;2022-09-11T13:43:26;15.50;;;8.15;;
24637;SDS011;12773;50.162;8.548;2022-09-11T13:52:08;13.80;;;7.92;;
24637;SDS011;12773;50.162;8.548;2022-09-11T13:54:58;12.58;;;7.30;;
24637;SDS011;12773;50.162;8.548;2022-09-11T13:57:55;12.20;;;7.42;;
24637;SDS011;12773;50.162;8.548;2022-09-11T14:00:45;13.65;;;7.37;;
24637;SDS011;12773;50.162;8.548;2022-09-11T14:03:35;10.78;;;7.17;;
24637;SDS011;12773;50.162;8.548;2022-09-11T14:06:24;14.85;;;7.60;;
24637;SDS011;12773;50.162;8.548;2022-09-11T14:09:16;12.85;;;7.33;;
24637;SDS011;12773;50.162;8.548;2022-09-11T14:12:06;10.30;;;6.55;;
24637;SDS011;12773;50.162;8.548;2022-09-11T14:14:54;9.80;;;6.55;;
24637;SDS011;12773;50.162;8.548;2022-09-11T14:17:43;10.43;;;6.50;;
24637;SDS011;12773;50.162;8.548;2022-09-11T14:20:31;11.12;;;7.15;;
24637;SDS011;12773;50.162;8.548;2022-09-11T14:23:22;13.75;;;6.83;;
24637;SDS011;12773;50.162;8.548;2022-09-11T14:26:18;16.87;;;9.20;;
24637;SDS011;12773;50.162;8.548;2022-09-11T14:35:23;38.88;;;20.20;;
24637;SDS011;12773;50.162;8.548;2022-09-11T14:38:11;17.92;;;9.08;;
24637;SDS011;12773;50.162;8.548;2022-09-11T14:41:01;11.40;;;7.45;;
24637;SDS011;12773;50.162;8.548;2022-09-11T14:43:51;17.42;;;8.58;;
24637;SDS011;12773;50.162;8.548;2022-09-11T14:46:38;15.40;;;7.97;;
24637;SDS011;12773;50.162;8.548;2022-09-11T14:49:25;13.65;;;7.97;;
24637;SDS011;12773;50.162;8.548;2022-09-11T14:52:15;13.78;;;7.78;;
24637;SDS011;12773;50.162;8.548;2022-09-11T14:55:05;13.68;;;7.90;;
24637;SDS011;12773;50.162;8.548;2022-09-11T14:57:53;12.35;;;7.78;;
24637;SDS011;12773;50.162;8.548;2022-09-11T15:00:41;13.45;;;8.48;;
24637;SDS011;12773;50.162;8.548;2022-09-11T15:03:28;13.93;;;7.83;;
24637;SDS011;12773;50.162;8.548;2022-09-11T15:06:18;13.00;;;7.78;;
24637;SDS011;12773;50.162;8.548;2022-09-11T15:09:06;13.58;;;7.83;;
24637;SDS011;12773;50.162;8.548;2022-09-11T15:11:54;13.58;;;8.23;;
24637;SDS011;12773;50.162;8.548;2022-09-11T15:14:41;13.62;;;7.85;;
24637;SDS011;12773;50.162;8.548;2022-09-11T15:17:30;13.28;;;7.28;;
24637;SDS011;12773;50.162;8.548;2022-09-11T15:20:19;12.03;;;6.92;;
24637;SDS011;12773;50.162;8.548;2022-09-11T15:23:09;12.03;;;6.78;;
24637;SDS011;12773;50.162;8.548;2022-09-11T15:25:57;11.30;;;7.28;;
24637;SDS011;12773;50.162;8.548;2022-09-11T15:28:46;12.13;;;7.35;;
24637;SDS011;12773;50.162;8.548;2022-09-11T15:31:36;10.58;;;6.85;;
24637;SDS011;12773;50.162;8.548;2022-09-11T15:34:24;15.18;;;7.37;;
24637;SDS011;12773;50.162;8.548;2022-09-11T15:37:16;12.10;;;7.12;;
24637;SDS011;12773;50.162;8.548;2022-09-11T15:40:04;13.35;;;7.33;;
24637;SDS011;12773;50.162;8.548;2022-09-11T15:43:12;12.60;;;7.45;;
24637;SDS011;12773;50.162;8.548;2022-09-11T15:45:59;13.35;;;7.70;;
24637;SDS011;12773;50.162;8.548;2022-09-11T15:48:49;15.30;;;7.62;;
24637;SDS011;12773;50.162;8.548;2022-09-11T15:51:38;14.43;;;7.40;;
24637;SDS011;12773;50.162;8.548;2022-09-11T15:54:25;13.25;;;7.20;;
24637;SDS011;12773;50.162;8.548;2022-09-11T15:57:14;12.55;;;7.30;;
24637;SDS011;12773;50.162;8.548;2022-09-11T16:00:02;13.55;;;8.10;;
24637;SDS011;12773;50.162;8.548;2022-09-11T16:02:50;14.00;;;7.28;;
24637;SDS011;12773;50.162;8.548;2022-09-11T16:05:38;11.57;;;6.53;;
24637;SDS011;12773;50.162;8.548;2022-09-11T16:08:26;12.98;;;6.78;;
24637;SDS011;12773;50.162;8.548;2022-09-11T16:11:14;11.18;;;7.10;;
24637;SDS011;12773;50.162;8.548;2022-09-11T16:14:01;14.87;;;7.37;;
24637;SDS011;12773;50.162;8.548;2022-09-11T16:16:49;10.80;;;6.45;;
24637;SDS011;12773;50.162;8.548;2022-09-11T16:19:37;13.78;;;7.70;;
24637;SDS011;12773;50.162;8.548;2022-09-11T16:22:25;13.18;;;7.00;;
24637;SDS011;12773;50.162;8.548;2022-09-11T16:25:14;14.47;;;7.30;;
24637;SDS011;12773;50.162;8.548;2022-09-11T16:28:02;10.45;;;6.58;;
24637;SDS011;12773;50.162;8.548;2022-09-11T16:30:51;14.63;;;7.15;;
24637;SDS011;12773;50.162;8.548;2022-09-11T16:33:40;12.00;;;7.20;;
24637;SDS011;12773;50.162;8.548;2022-09-11T16:36:32;11.85;;;7.10;;
24637;SDS011;12773;50.162;8.548;2022-09-11T16:39:27;12.00;;;7.08;;
24637;SDS011;12773;50.162;8.548;2022-09-11T16:42:15;14.93;;;7.85;;
24637;SDS011;12773;50.162;8.548;2022-09-11T16:45:04;12.60;;;7.28;;
24637;SDS011;12773;50.162;8.548;2022-09-11T16:47:51;15.00;;;6.65;;
24637;SDS011;12773;50.162;8.548;2022-09-11T16:50:39;11.68;;;6.83;;
24637;SDS011;12773;50.162;8.548;2022-09-11T16:53:27;13.28;;;6.97;;
24637;SDS011;12773;50.162;8.548;2022-09-11T16:56:18;13.40;;;7.35;;
24637;SDS011;12773;50.162;8.548;2022-09-11T16:59:06;10.80;;;6.75;;
24637;SDS011;12773;50.162;8.548;2022-09-11T17:01:53;11.15;;;6.75;;
24637;SDS011;12773;50.162;8.548;2022-09-11T17:04:43;12.68;;;6.78;;
24637;SDS011;12773;50.162;8.548;2022-09-11T17:07:30;14.80;;;7.47;;
24637;SDS011;12773;50.162;8.548;2022-09-11T17:10:18;13.22;;;7.28;;
24637;SDS011;12773;50.162;8.548;2022-09-11T17:13:06;12.13;;;6.62;;
24637;SDS011;12773;50.162;8.548;2022-09-11T17:15:59;11.53;;;6.65;;
24637;SDS011;12773;50.162;8.548;2022-09-11T17:18:51;11.97;;;6.73;;
24637;SDS011;12773;50.162;8.548;2022-09-11T17:21:41;12.60;;;7.08;;
24637;SDS011;12773;50.162;8.548;2022-09-11T17:24:28;14.18;;;7.42;;
24637;SDS011;12773;50.162;8.548;2022-09-11T17:27:16;14.80;;;7.15;;
24637;SDS011;12773;50.162;8.548;2022-09-11T17:30:04;13.70;;;7.25;;
24637;SDS011;12773;50.162;8.548;2022-09-11T17:32:51;15.48;;;8.00;;
24637;SDS011;12773;50.162;8.548;2022-09-11T17:35:39;14.85;;;8.00;;
24637;SDS011;12773;50.162;8.548;2022-09-11T17:38:27;15.55;;;8.60;;
24637;SDS011;12773;50.162;8.548;2022-09-11T17:41:14;14.68;;;8.30;;
24637;SDS011;12773;50.162;8.548;2022-09-11T17:44:02;13.78;;;8.10;;
24637;SDS011;12773;50.162;8.548;2022-09-11T17:46:50;14.50;;;8.10;;
24637;SDS011;12773;50.162;8.548;2022-09-11T17:49:37;18.30;;;8.93;;
24637;SDS011;12773;50.162;8.548;2022-09-11T17:52:24;15.50;;;8.58;;
24637;SDS011;12773;50.162;8.548;2022-09-11T17:55:12;15.70;;;8.80;;
24637;SDS011;12773;50.162;8.548;2022-09-11T17:58:00;15.80;;;8.20;;
24637;SDS011;12773;50.162;8.548;2022-09-11T18:00:47;27.55;;;9.60;;
24637;SDS011;12773;50.162;8.548;2022-09-11T18:03:35;15.72;;;8.60;;
24637;SDS011;12773;50.162;8.548;2022-09-11T18:06:24;18.82;;;9.03;;
24637;SDS011;12773;50.162;8.548;2022-09-11T18:09:13;16.80;;;8.68;;
24637;SDS011;12773;50.162;8.548;2022-09-11T18:12:02;18.48;;;9.90;;
24637;SDS011;12773;50.162;8.548;2022-09-11T18:14:50;14.98;;;8.38;;
24637;SDS011;12773;50.162;8.548;2022-09-11T18:17:39;19.80;;;9.50;;
24637;SDS011;12773;50.162;8.548;2022-09-11T18:20:26;20.97;;;9.53;;
24637;SDS011;12773;50.162;8.548;2022-09-11T18:23:14;22.35;;;8.95;;